KGVL/GVL METAR and TAF weather

Enter ICAO airport designator
Station Type Date Time Source
KGVL METAR 2020/11/27 02:53 UTC NOAA

KGVL 270253Z AUTO 27004KT 10SM CLR 13/07 A3011 RMK AO2 SLP188 T01330067 51008 $


Station Type Date Time Source
KGVL Decoded METAR 2020/11/27 02:53 UTC NOAA

GILMER MEMORIAL AIRPORT, GA, United States (KGVL) 34-16N 83-50W 386M
Nov 26, 2020 - 09:53 PM EST / 2020.11.27 0253 UTC
Wind: from the W (270 degrees) at 5 MPH (4 KT):0
Visibility: 10 mile(s):0
Sky conditions: clear
Temperature: 55.9 F (13.3 C)
Dew Point: 44.1 F (6.7 C)
Relative Humidity: 64%
Pressure (altimeter): 30.11 in. Hg (1019 hPa)
Pressure tendency: 0.02 inches (0.8 hPa) higher than three hours ago
ob: KGVL 270253Z AUTO 27004KT 10SM CLR 13/07 A3011 RMK AO2 SLP188 T01330067 51008
cycle: 3

Station Type Date Time Source
KGVL TAF UTC NOAA

Error!

Example: see airport list